sensor_id;sensor_type;location;lat;lon;timestamp;temperature;humidity
11826;DHT22;5970;48.094;11.496;2022-11-13T00:00:49;6.50;99.90
11826;DHT22;5970;48.094;11.496;2022-11-13T00:03:16;6.50;99.90
11826;DHT22;5970;48.094;11.496;2022-11-13T00:05:42;6.60;99.90
11826;DHT22;5970;48.094;11.496;2022-11-13T00:08:09;6.60;99.90
11826;DHT22;5970;48.094;11.496;2022-11-13T00:10:36;6.60;99.90
11826;DHT22;5970;48.094;11.496;2022-11-13T00:13:02;6.60;99.90
11826;DHT22;5970;48.094;11.496;2022-11-13T00:15:29;6.60;99.90
11826;DHT22;5970;48.094;11.496;2022-11-13T00:17:58;6.60;99.90
11826;DHT22;5970;48.094;11.496;2022-11-13T00:20:25;6.50;99.90
11826;DHT22;5970;48.094;11.496;2022-11-13T00:22:52;6.50;99.90
11826;DHT22;5970;48.094;11.496;2022-11-13T00:25:18;6.40;99.90
11826;DHT22;5970;48.094;11.496;2022-11-13T00:27:45;6.40;99.90
11826;DHT22;5970;48.094;11.496;2022-11-13T00:30:12;6.30;99.90
11826;DHT22;5970;48.094;11.496;2022-11-13T00:32:44;6.20;99.90
11826;DHT22;5970;48.094;11.496;2022-11-13T00:35:11;6.30;99.90
11826;DHT22;5970;48.094;11.496;2022-11-13T00:37:37;6.30;99.90
11826;DHT22;5970;48.094;11.496;2022-11-13T00:40:04;6.30;99.90
11826;DHT22;5970;48.094;11.496;2022-11-13T00:42:31;6.20;99.90
11826;DHT22;5970;48.094;11.496;2022-11-13T00:44:58;6.20;99.90
11826;DHT22;5970;48.094;11.496;2022-11-13T00:47:24;6.30;99.90
11826;DHT22;5970;48.094;11.496;2022-11-13T00:49:51;6.20;99.90
11826;DHT22;5970;48.094;11.496;2022-11-13T00:52:17;6.20;99.90
11826;DHT22;5970;48.094;11.496;2022-11-13T00:54:44;6.20;99.90
11826;DHT22;5970;48.094;11.496;2022-11-13T00:57:11;6.20;99.90
11826;DHT22;5970;48.094;11.496;2022-11-13T00:59:37;6.20;99.90
11826;DHT22;5970;48.094;11.496;2022-11-13T01:02:04;6.10;99.90
11826;DHT22;5970;48.094;11.496;2022-11-13T01:04:31;5.70;99.90
11826;DHT22;5970;48.094;11.496;2022-11-13T01:06:57;5.90;99.90
11826;DHT22;5970;48.094;11.496;2022-11-13T01:09:24;5.90;99.90
11826;DHT22;5970;48.094;11.496;2022-11-13T01:11:50;6.00;99.90
11826;DHT22;5970;48.094;11.496;2022-11-13T01:14:17;6.00;99.90
11826;DHT22;5970;48.094;11.496;2022-11-13T01:16:44;6.40;99.90
11826;DHT22;5970;48.094;11.496;2022-11-13T01:19:10;5.90;99.90
11826;DHT22;5970;48.094;11.496;2022-11-13T01:21:37;5.80;99.90
11826;DHT22;5970;48.094;11.496;2022-11-13T01:24:04;5.80;99.90
11826;DHT22;5970;48.094;11.496;2022-11-13T01:26:30;5.80;99.90
11826;DHT22;5970;48.094;11.496;2022-11-13T01:28:57;5.70;99.90
11826;DHT22;5970;48.094;11.496;2022-11-13T01:31:25;5.90;99.90
11826;DHT22;5970;48.094;11.496;2022-11-13T01:33:52;5.80;99.90
11826;DHT22;5970;48.094;11.496;2022-11-13T01:36:21;5.90;99.90
11826;DHT22;5970;48.094;11.496;2022-11-13T01:38:48;5.50;99.90
11826;DHT22;5970;48.094;11.496;2022-11-13T01:41:16;5.40;99.90
11826;DHT22;5970;48.094;11.496;2022-11-13T01:43:49;5.60;99.90
11826;DHT22;5970;48.094;11.496;2022-11-13T01:46:17;5.60;99.90
11826;DHT22;5970;48.094;11.496;2022-11-13T01:51:31;5.60;99.90
11826;DHT22;5970;48.094;11.496;2022-11-13T01:53:58;5.60;99.90
11826;DHT22;5970;48.094;11.496;2022-11-13T01:56:26;5.50;99.90
11826;DHT22;5970;48.094;11.496;2022-11-13T01:58:54;5.60;99.90
11826;DHT22;5970;48.094;11.496;2022-11-13T02:01:22;5.70;99.90
11826;DHT22;5970;48.094;11.496;2022-11-13T02:03:49;5.70;99.90
11826;DHT22;5970;48.094;11.496;2022-11-13T02:06:16;5.70;99.90
11826;DHT22;5970;48.094;11.496;2022-11-13T02:08:42;5.70;99.90
11826;DHT22;5970;48.094;11.496;2022-11-13T02:11:10;5.80;99.90
11826;DHT22;5970;48.094;11.496;2022-11-13T02:13:37;5.80;99.90
11826;DHT22;5970;48.094;11.496;2022-11-13T02:16:05;5.70;99.90
11826;DHT22;5970;48.094;11.496;2022-11-13T02:18:32;5.60;99.90
11826;DHT22;5970;48.094;11.496;2022-11-13T02:23:48;5.60;99.90
11826;DHT22;5970;48.094;11.496;2022-11-13T02:26:18;5.70;99.90
11826;DHT22;5970;48.094;11.496;2022-11-13T02:28:45;5.70;99.90
11826;DHT22;5970;48.094;11.496;2022-11-13T02:31:12;5.70;99.90
11826;DHT22;5970;48.094;11.496;2022-11-13T02:33:39;5.70;99.90
11826;DHT22;5970;48.094;11.496;2022-11-13T02:36:05;5.60;99.90
11826;DHT22;5970;48.094;11.496;2022-11-13T02:38:33;5.70;99.90
11826;DHT22;5970;48.094;11.496;2022-11-13T02:41:00;8.30;99.90
11826;DHT22;5970;48.094;11.496;2022-11-13T02:43:27;5.60;99.90
11826;DHT22;5970;48.094;11.496;2022-11-13T02:45:53;5.50;99.90
11826;DHT22;5970;48.094;11.496;2022-11-13T02:48:20;5.50;99.90
11826;DHT22;5970;48.094;11.496;2022-11-13T02:50:47;5.50;99.90
11826;DHT22;5970;48.094;11.496;2022-11-13T02:53:13;5.60;99.90
11826;DHT22;5970;48.094;11.496;2022-11-13T02:55:40;5.60;99.90
11826;DHT22;5970;48.094;11.496;2022-11-13T02:58:07;5.50;99.90
11826;DHT22;5970;48.094;11.496;2022-11-13T03:00:33;5.60;99.90
11826;DHT22;5970;48.094;11.496;2022-11-13T03:03:00;5.60;99.90
11826;DHT22;5970;48.094;11.496;2022-11-13T03:05:26;5.60;99.90
11826;DHT22;5970;48.094;11.496;2022-11-13T03:07:53;5.50;99.90
11826;DHT22;5970;48.094;11.496;2022-11-13T03:10:20;5.40;99.90
11826;DHT22;5970;48.094;11.496;2022-11-13T03:12:46;5.50;99.90
11826;DHT22;5970;48.094;11.496;2022-11-13T03:15:13;5.50;99.90
11826;DHT22;5970;48.094;11.496;2022-11-13T03:17:40;5.40;99.90
11826;DHT22;5970;48.094;11.496;2022-11-13T03:20:06;5.40;99.90
11826;DHT22;5970;48.094;11.496;2022-11-13T03:22:33;5.90;99.90
11826;DHT22;5970;48.094;11.496;2022-11-13T03:25:00;5.40;99.90
11826;DHT22;5970;48.094;11.496;2022-11-13T03:27:34;5.30;99.90
11826;DHT22;5970;48.094;11.496;2022-11-13T03:30:01;5.40;99.90
11826;DHT22;5970;48.094;11.496;2022-11-13T03:32:27;5.40;99.90
11826;DHT22;5970;48.094;11.496;2022-11-13T03:34:54;5.40;99.90
11826;DHT22;5970;48.094;11.496;2022-11-13T03:37:20;5.40;99.90
11826;DHT22;5970;48.094;11.496;2022-11-13T03:39:47;5.50;99.90
11826;DHT22;5970;48.094;11.496;2022-11-13T03:42:14;5.50;99.90
11826;DHT22;5970;48.094;11.496;2022-11-13T03:44:40;5.50;99.90
11826;DHT22;5970;48.094;11.496;2022-11-13T03:47:07;5.40;99.90
11826;DHT22;5970;48.094;11.496;2022-11-13T03:49:33;5.40;99.90
11826;DHT22;5970;48.094;11.496;2022-11-13T03:52:00;5.50;99.90
11826;DHT22;5970;48.094;11.496;2022-11-13T03:54:27;5.50;99.90
11826;DHT22;5970;48.094;11.496;2022-11-13T03:56:53;5.50;99.90
11826;DHT22;5970;48.094;11.496;2022-11-13T03:59:20;5.10;99.90
11826;DHT22;5970;48.094;11.496;2022-11-13T04:01:47;5.40;99.90
11826;DHT22;5970;48.094;11.496;2022-11-13T04:04:13;5.20;99.90
11826;DHT22;5970;48.094;11.496;2022-11-13T04:06:41;5.30;99.90
11826;DHT22;5970;48.094;11.496;2022-11-13T04:09:08;5.40;99.90
11826;DHT22;5970;48.094;11.496;2022-11-13T04:11:34;5.50;99.90
11826;DHT22;5970;48.094;11.496;2022-11-13T04:14:01;5.50;99.90
11826;DHT22;5970;48.094;11.496;2022-11-13T04:16:27;5.50;99.90
11826;DHT22;5970;48.094;11.496;2022-11-13T04:18:54;5.50;99.90
11826;DHT22;5970;48.094;11.496;2022-11-13T04:21:21;5.40;99.90
11826;DHT22;5970;48.094;11.496;2022-11-13T04:23:47;5.40;99.90
11826;DHT22;5970;48.094;11.496;2022-11-13T04:26:14;5.40;99.90
11826;DHT22;5970;48.094;11.496;2022-11-13T04:28:40;5.50;99.90
11826;DHT22;5970;48.094;11.496;2022-11-13T04:31:07;5.50;99.90
11826;DHT22;5970;48.094;11.496;2022-11-13T04:33:34;5.50;99.90
11826;DHT22;5970;48.094;11.496;2022-11-13T04:36:00;5.50;99.90
11826;DHT22;5970;48.094;11.496;2022-11-13T04:38:27;5.40;99.90
11826;DHT22;5970;48.094;11.496;2022-11-13T04:40:54;5.30;99.90
11826;DHT22;5970;48.094;11.496;2022-11-13T04:43:41;5.20;99.90
11826;DHT22;5970;48.094;11.496;2022-11-13T04:46:08;5.30;99.90
11826;DHT22;5970;48.094;11.496;2022-11-13T04:48:34;5.20;99.90
11826;DHT22;5970;48.094;11.496;2022-11-13T04:51:01;5.20;99.90
11826;DHT22;5970;48.094;11.496;2022-11-13T04:53:27;5.30;99.90
11826;DHT22;5970;48.094;11.496;2022-11-13T04:55:54;5.20;99.90
11826;DHT22;5970;48.094;11.496;2022-11-13T04:58:21;5.20;99.90
11826;DHT22;5970;48.094;11.496;2022-11-13T05:00:47;5.20;99.90
11826;DHT22;5970;48.094;11.496;2022-11-13T05:03:14;5.20;99.90
11826;DHT22;5970;48.094;11.496;2022-11-13T05:05:40;5.20;99.90
11826;DHT22;5970;48.094;11.496;2022-11-13T05:08:07;5.20;99.90
11826;DHT22;5970;48.094;11.496;2022-11-13T05:10:34;5.20;99.90
11826;DHT22;5970;48.094;11.496;2022-11-13T05:13:00;5.00;99.90
11826;DHT22;5970;48.094;11.496;2022-11-13T05:15:27;5.00;99.90
11826;DHT22;5970;48.094;11.496;2022-11-13T05:17:54;5.00;99.90
11826;DHT22;5970;48.094;11.496;2022-11-13T05:20:21;5.00;99.90
11826;DHT22;5970;48.094;11.496;2022-11-13T05:22:47;5.00;99.90
11826;DHT22;5970;48.094;11.496;2022-11-13T05:25:14;5.00;99.90
11826;DHT22;5970;48.094;11.496;2022-11-13T05:27:41;5.10;99.90
11826;DHT22;5970;48.094;11.496;2022-11-13T05:30:08;5.10;99.90
11826;DHT22;5970;48.094;11.496;2022-11-13T05:32:34;5.10;99.90
11826;DHT22;5970;48.094;11.496;2022-11-13T05:35:01;5.00;99.90
11826;DHT22;5970;48.094;11.496;2022-11-13T05:37:27;5.00;99.90
11826;DHT22;5970;48.094;11.496;2022-11-13T05:39:54;5.00;99.90
11826;DHT22;5970;48.094;11.496;2022-11-13T05:42:21;5.00;99.90
11826;DHT22;5970;48.094;11.496;2022-11-13T05:44:48;5.00;99.90
11826;DHT22;5970;48.094;11.496;2022-11-13T05:47:14;5.00;99.90
11826;DHT22;5970;48.094;11.496;2022-11-13T05:49:41;5.00;99.90
11826;DHT22;5970;48.094;11.496;2022-11-13T05:52:07;4.90;99.90
11826;DHT22;5970;48.094;11.496;2022-11-13T05:54:34;4.90;99.90
11826;DHT22;5970;48.094;11.496;2022-11-13T05:57:01;4.80;99.90
11826;DHT22;5970;48.094;11.496;2022-11-13T05:59:27;4.00;99.90
11826;DHT22;5970;48.094;11.496;2022-11-13T06:01:54;4.90;99.90
11826;DHT22;5970;48.094;11.496;2022-11-13T06:04:21;4.90;99.90
11826;DHT22;5970;48.094;11.496;2022-11-13T06:06:47;4.90;99.90
11826;DHT22;5970;48.094;11.496;2022-11-13T06:09:14;4.50;99.90
11826;DHT22;5970;48.094;11.496;2022-11-13T06:11:42;4.50;99.90
11826;DHT22;5970;48.094;11.496;2022-11-13T06:14:09;4.60;99.90
11826;DHT22;5970;48.094;11.496;2022-11-13T06:16:36;4.50;99.90
11826;DHT22;5970;48.094;11.496;2022-11-13T06:19:05;4.60;99.90
11826;DHT22;5970;48.094;11.496;2022-11-13T06:21:32;4.50;99.90
11826;DHT22;5970;48.094;11.496;2022-11-13T06:24:00;4.50;99.90
11826;DHT22;5970;48.094;11.496;2022-11-13T06:26:27;4.50;99.90
11826;DHT22;5970;48.094;11.496;2022-11-13T06:28:54;4.60;99.90
11826;DHT22;5970;48.094;11.496;2022-11-13T06:31:24;4.60;99.90
11826;DHT22;5970;48.094;11.496;2022-11-13T06:33:51;4.70;99.90
11826;DHT22;5970;48.094;11.496;2022-11-13T06:36:23;4.60;99.90
11826;DHT22;5970;48.094;11.496;2022-11-13T06:38:50;4.50;99.90
11826;DHT22;5970;48.094;11.496;2022-11-13T06:41:18;4.60;99.90
11826;DHT22;5970;48.094;11.496;2022-11-13T06:43:45;4.60;99.90
11826;DHT22;5970;48.094;11.496;2022-11-13T06:46:14;4.70;99.90
11826;DHT22;5970;48.094;11.496;2022-11-13T06:48:41;4.90;99.90
11826;DHT22;5970;48.094;11.496;2022-11-13T06:51:08;4.60;99.90
11826;DHT22;5970;48.094;11.496;2022-11-13T06:53:37;4.70;99.90
11826;DHT22;5970;48.094;11.496;2022-11-13T06:56:04;4.70;99.90
11826;DHT22;5970;48.094;11.496;2022-11-13T06:58:31;4.60;99.90
11826;DHT22;5970;48.094;11.496;2022-11-13T07:01:03;4.70;99.90
11826;DHT22;5970;48.094;11.496;2022-11-13T07:03:30;4.80;99.90
11826;DHT22;5970;48.094;11.496;2022-11-13T07:05:59;4.90;99.90
11826;DHT22;5970;48.094;11.496;2022-11-13T07:08:26;4.80;99.90
11826;DHT22;5970;48.094;11.496;2022-11-13T07:10:53;4.90;99.90
11826;DHT22;5970;48.094;11.496;2022-11-13T07:13:21;4.90;99.90
11826;DHT22;5970;48.094;11.496;2022-11-13T07:15:48;4.90;99.90
11826;DHT22;5970;48.094;11.496;2022-11-13T07:18:14;5.00;99.90
11826;DHT22;5970;48.094;11.496;2022-11-13T07:20:48;5.10;99.90
11826;DHT22;5970;48.094;11.496;2022-11-13T07:23:15;5.20;99.90
11826;DHT22;5970;48.094;11.496;2022-11-13T07:25:41;5.20;99.90
11826;DHT22;5970;48.094;11.496;2022-11-13T07:28:08;5.20;99.90
11826;DHT22;5970;48.094;11.496;2022-11-13T07:30:34;5.30;99.90
11826;DHT22;5970;48.094;11.496;2022-11-13T07:33:02;5.40;99.90
11826;DHT22;5970;48.094;11.496;2022-11-13T07:35:28;5.40;99.90
11826;DHT22;5970;48.094;11.496;2022-11-13T07:37:56;5.40;99.90
11826;DHT22;5970;48.094;11.496;2022-11-13T07:40:22;5.40;99.90
11826;DHT22;5970;48.094;11.496;2022-11-13T07:42:56;5.30;99.90
11826;DHT22;5970;48.094;11.496;2022-11-13T07:45:23;5.40;99.90
11826;DHT22;5970;48.094;11.496;2022-11-13T07:47:50;5.30;99.90
11826;DHT22;5970;48.094;11.496;2022-11-13T07:50:17;5.20;99.90
11826;DHT22;5970;48.094;11.496;2022-11-13T07:52:43;5.10;99.90
11826;DHT22;5970;48.094;11.496;2022-11-13T07:55:10;4.90;99.90
11826;DHT22;5970;48.094;11.496;2022-11-13T07:57:37;4.80;99.90
11826;DHT22;5970;48.094;11.496;2022-11-13T08:00:03;4.90;99.90
11826;DHT22;5970;48.094;11.496;2022-11-13T08:02:30;4.90;99.90
11826;DHT22;5970;48.094;11.496;2022-11-13T08:04:57;5.00;99.90
11826;DHT22;5970;48.094;11.496;2022-11-13T08:07:24;5.20;99.90
11826;DHT22;5970;48.094;11.496;2022-11-13T08:09:50;5.50;99.90
11826;DHT22;5970;48.094;11.496;2022-11-13T08:12:17;5.80;99.90
11826;DHT22;5970;48.094;11.496;2022-11-13T08:14:44;5.00;99.90
11826;DHT22;5970;48.094;11.496;2022-11-13T08:17:10;5.30;99.90
11826;DHT22;5970;48.094;11.496;2022-11-13T08:19:37;5.40;99.90
11826;DHT22;5970;48.094;11.496;2022-11-13T08:22:03;5.50;99.90
11826;DHT22;5970;48.094;11.496;2022-11-13T08:24:30;5.60;99.90
11826;DHT22;5970;48.094;11.496;2022-11-13T08:26:58;5.60;99.90
11826;DHT22;5970;48.094;11.496;2022-11-13T08:29:24;5.60;99.90
11826;DHT22;5970;48.094;11.496;2022-11-13T08:31:51;5.50;99.90
11826;DHT22;5970;48.094;11.496;2022-11-13T08:34:18;5.40;99.90
11826;DHT22;5970;48.094;11.496;2022-11-13T08:36:44;5.50;99.90
11826;DHT22;5970;48.094;11.496;2022-11-13T08:39:12;5.60;99.90
11826;DHT22;5970;48.094;11.496;2022-11-13T08:41:39;5.80;99.90
11826;DHT22;5970;48.094;11.496;2022-11-13T08:44:06;5.90;99.90
11826;DHT22;5970;48.094;11.496;2022-11-13T08:46:33;5.60;99.90
11826;DHT22;5970;48.094;11.496;2022-11-13T08:49:00;5.70;99.90
11826;DHT22;5970;48.094;11.496;2022-11-13T08:51:26;5.80;99.90
11826;DHT22;5970;48.094;11.496;2022-11-13T08:53:53;5.80;99.90
11826;DHT22;5970;48.094;11.496;2022-11-13T08:56:19;5.90;99.90
11826;DHT22;5970;48.094;11.496;2022-11-13T08:58:46;5.90;99.90
11826;DHT22;5970;48.094;11.496;2022-11-13T09:01:13;6.10;99.90
11826;DHT22;5970;48.094;11.496;2022-11-13T09:03:39;6.00;99.90
11826;DHT22;5970;48.094;11.496;2022-11-13T09:06:06;6.10;99.90
11826;DHT22;5970;48.094;11.496;2022-11-13T09:08:33;6.20;99.90
11826;DHT22;5970;48.094;11.496;2022-11-13T09:11:03;6.00;99.90
11826;DHT22;5970;48.094;11.496;2022-11-13T09:13:31;6.30;99.90
11826;DHT22;5970;48.094;11.496;2022-11-13T09:15:58;6.50;99.90
11826;DHT22;5970;48.094;11.496;2022-11-13T09:18:25;6.60;99.90
11826;DHT22;5970;48.094;11.496;2022-11-13T09:20:53;6.80;99.90
11826;DHT22;5970;48.094;11.496;2022-11-13T09:23:20;7.00;99.90
11826;DHT22;5970;48.094;11.496;2022-11-13T09:25:46;7.20;99.90
11826;DHT22;5970;48.094;11.496;2022-11-13T09:28:13;7.20;99.90
11826;DHT22;5970;48.094;11.496;2022-11-13T09:30:40;7.30;99.90
11826;DHT22;5970;48.094;11.496;2022-11-13T09:33:08;7.40;99.90
11826;DHT22;5970;48.094;11.496;2022-11-13T09:35:35;7.40;99.90
11826;DHT22;5970;48.094;11.496;2022-11-13T09:38:04;7.50;99.90
11826;DHT22;5970;48.094;11.496;2022-11-13T09:43:04;7.00;99.90
11826;DHT22;5970;48.094;11.496;2022-11-13T09:45:31;7.30;99.90
11826;DHT22;5970;48.094;11.496;2022-11-13T09:50:43;7.40;99.90
11826;DHT22;5970;48.094;11.496;2022-11-13T09:53:10;7.10;99.90
11826;DHT22;5970;48.094;11.496;2022-11-13T09:55:40;7.10;99.90
11826;DHT22;5970;48.094;11.496;2022-11-13T09:58:12;7.00;99.90
11826;DHT22;5970;48.094;11.496;2022-11-13T10:00:41;7.30;99.90
11826;DHT22;5970;48.094;11.496;2022-11-13T10:03:20;7.30;99.90
11826;DHT22;5970;48.094;11.496;2022-11-13T10:06:16;7.30;99.90
11826;DHT22;5970;48.094;11.496;2022-11-13T10:11:23;7.30;99.90
11826;DHT22;5970;48.094;11.496;2022-11-13T10:13:53;7.30;99.90
11826;DHT22;5970;48.094;11.496;2022-11-13T10:16:32;7.40;99.90
11826;DHT22;5970;48.094;11.496;2022-11-13T10:19:04;7.40;99.90
11826;DHT22;5970;48.094;11.496;2022-11-13T10:21:34;7.40;99.90
11826;DHT22;5970;48.094;11.496;2022-11-13T10:24:03;7.50;99.90
11826;DHT22;5970;48.094;11.496;2022-11-13T10:26:34;7.60;99.90
11826;DHT22;5970;48.094;11.496;2022-11-13T10:29:08;7.50;99.90
11826;DHT22;5970;48.094;11.496;2022-11-13T10:34:08;7.60;99.90
11826;DHT22;5970;48.094;11.496;2022-11-13T10:39:21;7.50;99.90
11826;DHT22;5970;48.094;11.496;2022-11-13T10:41:52;7.50;99.90
11826;DHT22;5970;48.094;11.496;2022-11-13T10:44:28;7.30;99.90
11826;DHT22;5970;48.094;11.496;2022-11-13T10:49:40;7.40;99.90
11826;DHT22;5970;48.094;11.496;2022-11-13T10:52:28;7.10;99.90
11826;DHT22;5970;48.094;11.496;2022-11-13T10:55:08;7.40;99.90
11826;DHT22;5970;48.094;11.496;2022-11-13T10:57:37;7.30;99.90
11826;DHT22;5970;48.094;11.496;2022-11-13T11:00:20;7.60;99.90
11826;DHT22;5970;48.094;11.496;2022-11-13T11:02:47;7.90;99.90
11826;DHT22;5970;48.094;11.496;2022-11-13T11:05:16;8.10;99.90
11826;DHT22;5970;48.094;11.496;2022-11-13T11:07:43;7.50;99.90
11826;DHT22;5970;48.094;11.496;2022-11-13T11:12:59;7.70;99.90
11826;DHT22;5970;48.094;11.496;2022-11-13T11:18:48;7.60;99.90
11826;DHT22;5970;48.094;11.496;2022-11-13T11:21:07;7.50;99.90
11826;DHT22;5970;48.094;11.496;2022-11-13T11:23:38;7.90;99.90
11826;DHT22;5970;48.094;11.496;2022-11-13T11:26:10;7.90;99.90
11826;DHT22;5970;48.094;11.496;2022-11-13T11:28:49;8.10;99.90
11826;DHT22;5970;48.094;11.496;2022-11-13T11:32:05;8.20;99.90
11826;DHT22;5970;48.094;11.496;2022-11-13T11:36:45;8.50;99.90
11826;DHT22;5970;48.094;11.496;2022-11-13T11:41:43;8.80;99.90
11826;DHT22;5970;48.094;11.496;2022-11-13T11:44:17;9.50;99.90
11826;DHT22;5970;48.094;11.496;2022-11-13T11:46:46;9.40;99.90
11826;DHT22;5970;48.094;11.496;2022-11-13T11:49:13;9.40;99.90
11826;DHT22;5970;48.094;11.496;2022-11-13T11:56:54;11.90;98.20
11826;DHT22;5970;48.094;11.496;2022-11-13T11:59:38;13.70;95.30
11826;DHT22;5970;48.094;11.496;2022-11-13T12:02:24;15.00;93.30
11826;DHT22;5970;48.094;11.496;2022-11-13T12:05:15;15.10;94.70
11826;DHT22;5970;48.094;11.496;2022-11-13T12:07:50;16.10;93.10
11826;DHT22;5970;48.094;11.496;2022-11-13T12:20:41;18.50;82.10
11826;DHT22;5970;48.094;11.496;2022-11-13T12:28:16;16.80;81.40
11826;DHT22;5970;48.094;11.496;2022-11-13T12:30:46;17.30;83.10
11826;DHT22;5970;48.094;11.496;2022-11-13T12:33:29;17.50;80.10
11826;DHT22;5970;48.094;11.496;2022-11-13T12:35:59;16.50;81.10
11826;DHT22;5970;48.094;11.496;2022-11-13T12:38:34;16.70;83.10
11826;DHT22;5970;48.094;11.496;2022-11-13T12:41:08;17.40;82.90
11826;DHT22;5970;48.094;11.496;2022-11-13T12:46:14;16.80;81.70
11826;DHT22;5970;48.094;11.496;2022-11-13T12:48:45;17.00;82.00
11826;DHT22;5970;48.094;11.496;2022-11-13T12:51:13;17.00;82.00
11826;DHT22;5970;48.094;11.496;2022-11-13T13:01:56;16.60;83.10
11826;DHT22;5970;48.094;11.496;2022-11-13T13:13:02;15.70;85.40
11826;DHT22;5970;48.094;11.496;2022-11-13T13:15:35;15.80;86.90
11826;DHT22;5970;48.094;11.496;2022-11-13T13:20:31;16.10;87.00
11826;DHT22;5970;48.094;11.496;2022-11-13T13:22:58;16.40;86.00
11826;DHT22;5970;48.094;11.496;2022-11-13T13:25:26;16.60;85.00
11826;DHT22;5970;48.094;11.496;2022-11-13T13:27:57;15.90;86.00
11826;DHT22;5970;48.094;11.496;2022-11-13T13:30:25;15.60;86.30
11826;DHT22;5970;48.094;11.496;2022-11-13T13:33:01;15.50;87.00
11826;DHT22;5970;48.094;11.496;2022-11-13T13:35:37;14.60;88.40
11826;DHT22;5970;48.094;11.496;2022-11-13T13:38:25;14.40;89.00
11826;DHT22;5970;48.094;11.496;2022-11-13T13:46:07;14.70;89.90
11826;DHT22;5970;48.094;11.496;2022-11-13T13:48:36;14.80;90.00
11826;DHT22;5970;48.094;11.496;2022-11-13T13:51:04;14.60;89.50
11826;DHT22;5970;48.094;11.496;2022-11-13T13:53:35;14.60;90.10
11826;DHT22;5970;48.094;11.496;2022-11-13T13:56:02;14.60;90.00
11826;DHT22;5970;48.094;11.496;2022-11-13T13:58:31;14.90;90.20
11826;DHT22;5970;48.094;11.496;2022-11-13T14:00:59;15.30;89.80
11826;DHT22;5970;48.094;11.496;2022-11-13T14:03:46;15.50;88.70
11826;DHT22;5970;48.094;11.496;2022-11-13T14:06:22;15.50;89.00
11826;DHT22;5970;48.094;11.496;2022-11-13T14:08:49;15.50;87.90
11826;DHT22;5970;48.094;11.496;2022-11-13T14:11:20;15.90;87.90
11826;DHT22;5970;48.094;11.496;2022-11-13T14:13:47;16.20;87.30
11826;DHT22;5970;48.094;11.496;2022-11-13T14:16:13;16.00;86.20
11826;DHT22;5970;48.094;11.496;2022-11-13T14:18:40;16.00;86.50
11826;DHT22;5970;48.094;11.496;2022-11-13T14:21:17;15.50;86.80
11826;DHT22;5970;48.094;11.496;2022-11-13T14:23:47;15.10;87.80
11826;DHT22;5970;48.094;11.496;2022-11-13T14:26:14;14.50;89.70
11826;DHT22;5970;48.094;11.496;2022-11-13T14:28:54;14.20;90.00
11826;DHT22;5970;48.094;11.496;2022-11-13T14:31:32;13.80;90.80
11826;DHT22;5970;48.094;11.496;2022-11-13T14:34:00;13.20;91.30
11826;DHT22;5970;48.094;11.496;2022-11-13T14:36:28;12.90;92.00
11826;DHT22;5970;48.094;11.496;2022-11-13T14:38:57;12.60;92.60
11826;DHT22;5970;48.094;11.496;2022-11-13T14:43:59;12.00;93.50
11826;DHT22;5970;48.094;11.496;2022-11-13T14:46:28;11.70;94.00
11826;DHT22;5970;48.094;11.496;2022-11-13T14:48:55;11.50;94.40
11826;DHT22;5970;48.094;11.496;2022-11-13T14:51:28;11.30;94.80
11826;DHT22;5970;48.094;11.496;2022-11-13T14:53:57;11.20;95.10
11826;DHT22;5970;48.094;11.496;2022-11-13T14:56:35;11.00;95.50
11826;DHT22;5970;48.094;11.496;2022-11-13T14:59:05;10.80;95.80
11826;DHT22;5970;48.094;11.496;2022-11-13T15:01:32;10.70;96.20
11826;DHT22;5970;48.094;11.496;2022-11-13T15:03:59;10.50;96.50
11826;DHT22;5970;48.094;11.496;2022-11-13T15:06:26;10.40;96.70
11826;DHT22;5970;48.094;11.496;2022-11-13T15:08:59;10.50;97.10
11826;DHT22;5970;48.094;11.496;2022-11-13T15:11:26;10.10;97.20
11826;DHT22;5970;48.094;11.496;2022-11-13T15:13:52;10.00;97.50
11826;DHT22;5970;48.094;11.496;2022-11-13T15:16:23;9.70;98.30
11826;DHT22;5970;48.094;11.496;2022-11-13T15:18:53;9.70;98.70
11826;DHT22;5970;48.094;11.496;2022-11-13T15:21:21;10.30;98.80
11826;DHT22;5970;48.094;11.496;2022-11-13T15:23:47;9.10;99.40
11826;DHT22;5970;48.094;11.496;2022-11-13T15:26:14;9.60;99.70
11826;DHT22;5970;48.094;11.496;2022-11-13T15:28:40;9.20;99.90
11826;DHT22;5970;48.094;11.496;2022-11-13T15:31:14;9.00;99.90
11826;DHT22;5970;48.094;11.496;2022-11-13T15:33:43;8.90;99.90
11826;DHT22;5970;48.094;11.496;2022-11-13T15:38:36;8.60;99.90
11826;DHT22;5970;48.094;11.496;2022-11-13T15:41:07;8.40;99.90
11826;DHT22;5970;48.094;11.496;2022-11-13T15:43:35;8.30;99.90
11826;DHT22;5970;48.094;11.496;2022-11-13T15:46:02;8.20;99.90
11826;DHT22;5970;48.094;11.496;2022-11-13T15:48:29;8.00;99.90
11826;DHT22;5970;48.094;11.496;2022-11-13T15:50:55;8.00;99.90
11826;DHT22;5970;48.094;11.496;2022-11-13T15:53:22;8.00;99.90
11826;DHT22;5970;48.094;11.496;2022-11-13T15:55:49;7.90;99.90
11826;DHT22;5970;48.094;11.496;2022-11-13T15:58:15;7.80;99.90
11826;DHT22;5970;48.094;11.496;2022-11-13T16:00:42;7.70;99.90
11826;DHT22;5970;48.094;11.496;2022-11-13T16:03:11;7.70;99.90
11826;DHT22;5970;48.094;11.496;2022-11-13T16:05:38;7.60;99.90
11826;DHT22;5970;48.094;11.496;2022-11-13T16:08:09;7.60;99.90
11826;DHT22;5970;48.094;11.496;2022-11-13T16:10:37;7.50;99.90
11826;DHT22;5970;48.094;11.496;2022-11-13T16:13:03;9.00;99.90
11826;DHT22;5970;48.094;11.496;2022-11-13T16:15:30;7.50;99.90
11826;DHT22;5970;48.094;11.496;2022-11-13T16:17:57;7.40;99.90
11826;DHT22;5970;48.094;11.496;2022-11-13T16:20:24;7.30;99.90
11826;DHT22;5970;48.094;11.496;2022-11-13T16:22:51;7.30;99.90
11826;DHT22;5970;48.094;11.496;2022-11-13T16:25:18;7.20;99.90
11826;DHT22;5970;48.094;11.496;2022-11-13T16:27:46;7.10;99.90
11826;DHT22;5970;48.094;11.496;2022-11-13T16:30:14;7.10;99.90
11826;DHT22;5970;48.094;11.496;2022-11-13T16:32:41;7.00;99.90
11826;DHT22;5970;48.094;11.496;2022-11-13T16:35:12;7.00;99.90
11826;DHT22;5970;48.094;11.496;2022-11-13T16:37:39;6.90;99.90
11826;DHT22;5970;48.094;11.496;2022-11-13T16:40:17;6.80;99.90
11826;DHT22;5970;48.094;11.496;2022-11-13T16:42:44;6.80;99.90
11826;DHT22;5970;48.094;11.496;2022-11-13T16:45:11;6.70;99.90
11826;DHT22;5970;48.094;11.496;2022-11-13T16:47:37;6.60;99.90
11826;DHT22;5970;48.094;11.496;2022-11-13T16:50:09;6.60;99.90
11826;DHT22;5970;48.094;11.496;2022-11-13T16:52:37;6.60;99.90
11826;DHT22;5970;48.094;11.496;2022-11-13T16:55:04;6.50;99.90
11826;DHT22;5970;48.094;11.496;2022-11-13T16:57:32;6.40;99.90
11826;DHT22;5970;48.094;11.496;2022-11-13T16:59:58;6.40;99.90
11826;DHT22;5970;48.094;11.496;2022-11-13T17:02:25;6.30;99.90
11826;DHT22;5970;48.094;11.496;2022-11-13T17:04:54;6.30;99.90
11826;DHT22;5970;48.094;11.496;2022-11-13T17:07:21;6.20;99.90
11826;DHT22;5970;48.094;11.496;2022-11-13T17:09:48;6.20;99.90
11826;DHT22;5970;48.094;11.496;2022-11-13T17:12:34;6.10;99.90
11826;DHT22;5970;48.094;11.496;2022-11-13T17:15:01;6.00;99.90